createdAt,value
2018-09-13T00:02:14.881Z,99431.00
2018-09-13T00:05:18.034Z,99439.03
2018-09-13T00:08:21.139Z,99440.36
2018-09-13T00:11:24.259Z,99426.31
2018-09-13T00:14:27.381Z,99424.38
2018-09-13T00:17:30.537Z,99413.70
2018-09-13T00:20:33.734Z,99423.36
2018-09-13T00:23:36.967Z,99426.20
2018-09-13T00:26:40.097Z,99425.05
2018-09-13T00:29:43.311Z,99428.61
2018-09-13T00:32:47.841Z,99411.81
2018-09-13T00:35:51.040Z,99406.71
2018-09-13T00:38:54.287Z,99409.19
2018-09-13T00:41:57.489Z,99411.59
2018-09-13T00:45:00.757Z,99422.53
2018-09-13T00:48:03.933Z,99425.58
2018-09-13T00:51:07.371Z,99418.93
2018-09-13T00:54:10.605Z,99410.92
2018-09-13T00:57:13.682Z,99411.71
2018-09-13T01:00:16.858Z,99406.83
2018-09-13T01:03:20.056Z,99417.21
2018-09-13T01:06:23.699Z,99413.54
2018-09-13T01:09:26.942Z,99407.42
2018-09-13T01:12:30.313Z,99412.34
2018-09-13T01:15:33.413Z,99410.73
2018-09-13T01:18:36.564Z,99407.80
2018-09-13T01:21:39.836Z,99401.03
2018-09-13T01:24:43.180Z,99397.94
2018-09-13T01:27:46.446Z,99394.53
2018-09-13T01:30:50.021Z,99394.13
2018-09-13T01:33:53.294Z,99400.55
2018-09-13T01:37:59.609Z,99398.59
2018-09-13T01:41:02.967Z,99404.86
2018-09-13T01:44:06.535Z,99407.00
2018-09-13T01:47:09.754Z,99411.63
2018-09-13T01:50:13.103Z,99407.37
2018-09-13T01:53:16.332Z,99409.78
2018-09-13T01:56:19.436Z,99409.59
2018-09-13T01:59:22.622Z,99413.94
2018-09-13T02:02:25.785Z,99411.78
2018-09-13T02:05:28.899Z,99417.54
2018-09-13T02:08:32.061Z,99418.25
2018-09-13T02:11:35.245Z,99413.47
2018-09-13T02:14:38.698Z,99407.90
2018-09-13T02:17:41.864Z,99404.67
2018-09-13T02:20:45.283Z,99404.14
2018-09-13T02:23:48.455Z,99406.95
2018-09-13T02:26:52.381Z,99402.94
2018-09-13T02:29:55.586Z,99395.72
2018-09-13T02:32:58.811Z,99397.48
2018-09-13T02:36:02.097Z,99402.16
2018-09-13T02:39:08.347Z,99394.91
2018-09-13T02:42:11.747Z,99397.48
2018-09-13T02:45:15.015Z,99395.91
2018-09-13T02:48:18.295Z,99394.03
2018-09-13T02:51:21.559Z,99386.52
2018-09-13T02:54:24.894Z,99388.06
2018-09-13T02:57:29.240Z,99386.23
2018-09-13T03:00:32.401Z,99383.70
2018-09-13T03:03:35.992Z,99384.09
2018-09-13T03:06:39.217Z,99376.34
2018-09-13T03:09:42.466Z,99382.73
2018-09-13T03:12:45.570Z,99380.27
2018-09-13T03:15:48.845Z,99394.05
2018-09-13T03:18:52.173Z,99401.02
2018-09-13T03:21:55.401Z,99394.34
2018-09-13T03:24:58.713Z,99388.68
2018-09-13T03:28:02.281Z,99386.23
2018-09-13T03:31:05.813Z,99374.03
2018-09-13T03:34:09.042Z,99362.76
2018-09-13T03:37:12.394Z,99365.59
2018-09-13T03:40:15.650Z,99366.47
2018-09-13T03:43:19.021Z,99363.70
2018-09-13T03:46:22.255Z,99365.89
2018-09-13T03:49:25.508Z,99360.42
2018-09-13T03:52:28.656Z,99370.56
2018-09-13T03:55:31.924Z,99366.59
2018-09-13T03:58:35.175Z,99373.69
2018-09-13T04:01:38.649Z,99382.64
2018-09-13T04:04:42.932Z,99377.20
2018-09-13T04:07:46.257Z,99377.85
2018-09-13T04:10:49.542Z,99370.25
2018-09-13T04:13:52.839Z,99370.44
2018-09-13T04:16:56.240Z,99363.88
2018-09-13T04:19:59.635Z,99357.94
2018-09-13T04:23:02.921Z,99361.63
2018-09-13T04:26:06.214Z,99354.31
2018-09-13T04:29:09.684Z,99353.49
2018-09-13T04:32:13.330Z,99355.30
2018-09-13T04:35:16.781Z,99353.45
2018-09-13T04:38:20.033Z,99346.55
2018-09-13T04:41:23.308Z,99345.41
2018-09-13T04:44:26.546Z,99340.67
2018-09-13T04:47:29.719Z,99339.78
2018-09-13T04:50:32.909Z,99345.09
2018-09-13T04:53:36.340Z,99342.34
2018-09-13T04:56:39.466Z,99341.38
2018-09-13T04:59:42.706Z,99332.80
2018-09-13T05:02:45.814Z,99326.80
2018-09-13T05:05:48.962Z,99324.97
2018-09-13T05:08:52.195Z,99326.48
2018-09-13T05:11:55.409Z,99318.63
2018-09-13T05:14:58.748Z,99323.77
2018-09-13T05:18:01.868Z,99326.88
2018-09-13T05:21:05.075Z,99325.73
2018-09-13T05:24:08.300Z,99325.98
2018-09-13T05:27:11.913Z,99327.41
2018-09-13T05:30:15.165Z,99326.25
2018-09-13T05:33:18.397Z,99329.58
2018-09-13T05:36:21.643Z,99327.84
2018-09-13T05:39:25.080Z,99320.02
2018-09-13T05:42:28.236Z,99321.16
2018-09-13T05:45:32.586Z,99328.56
2018-09-13T05:48:35.944Z,99326.92
2018-09-13T05:51:39.252Z,99316.42
2018-09-13T05:54:46.760Z,99323.06
2018-09-13T05:57:49.947Z,99333.87
2018-09-13T06:00:53.111Z,99353.02
2018-09-13T06:03:56.873Z,99368.02
2018-09-13T06:07:00.089Z,99367.66
2018-09-13T06:10:03.560Z,99365.77
2018-09-13T06:13:06.726Z,99361.57
2018-09-13T06:16:09.991Z,99357.33
2018-09-13T06:19:13.353Z,99362.08
2018-09-13T06:22:16.569Z,99366.86
2018-09-13T06:25:20.039Z,99365.77
2018-09-13T06:28:23.193Z,99373.28
2018-09-13T06:31:26.555Z,99368.41
2018-09-13T06:34:29.911Z,99369.94
2018-09-13T06:37:33.028Z,99370.86
2018-09-13T06:40:37.169Z,99370.88
2018-09-13T06:43:41.289Z,99375.83
2018-09-13T06:46:44.538Z,99393.36
2018-09-13T06:49:47.681Z,99396.75
2018-09-13T06:52:51.019Z,99393.31
2018-09-13T06:55:54.154Z,99388.33
2018-09-13T06:58:57.289Z,99391.06
2018-09-13T07:02:00.280Z,99396.38
2018-09-13T07:05:03.449Z,99400.23
2018-09-13T07:08:06.665Z,99406.83
2018-09-13T07:11:10.177Z,99407.46
2018-09-13T07:14:14.138Z,99410.23
2018-09-13T07:17:17.287Z,99414.27
2018-09-13T07:20:20.440Z,99420.15
2018-09-13T07:23:23.540Z,99418.60
2018-09-13T07:26:27.202Z,99419.36
2018-09-13T07:29:30.393Z,99415.67
2018-09-13T07:32:33.486Z,99417.28
2018-09-13T07:35:36.674Z,99424.61
2018-09-13T07:38:39.796Z,99421.17
2018-09-13T07:41:43.003Z,99415.20
2018-09-13T07:44:46.379Z,99412.28
2018-09-13T07:47:49.630Z,99412.51
2018-09-13T07:50:52.871Z,99420.91
2018-09-13T07:53:56.199Z,99427.11
2018-09-13T07:56:59.569Z,99431.77
2018-09-13T08:00:03.191Z,99429.89
2018-09-13T08:03:07.334Z,99428.04
2018-09-13T08:06:10.399Z,99426.33
2018-09-13T08:09:13.573Z,99429.94
2018-09-13T08:12:16.932Z,99426.19
2018-09-13T08:15:19.933Z,99429.36
2018-09-13T08:18:23.135Z,99430.40
2018-09-13T08:21:26.340Z,99429.67
2018-09-13T08:24:29.804Z,99432.31
2018-09-13T08:27:33.099Z,99432.22
2018-09-13T08:30:36.388Z,99431.20
2018-09-13T08:33:39.667Z,99435.16
2018-09-13T08:36:42.875Z,99432.48
2018-09-13T08:39:46.248Z,99427.84
2018-09-13T08:42:49.567Z,99433.41
2018-09-13T08:45:52.651Z,99426.58
2018-09-13T08:48:55.703Z,99415.22
2018-09-13T08:51:59.066Z,99422.80
2018-09-13T08:55:02.375Z,99417.89
2018-09-13T08:58:05.561Z,99428.69
2018-09-13T09:01:08.720Z,99432.50
2018-09-13T09:04:12.133Z,99438.19
2018-09-13T09:07:15.343Z,99452.37
2018-09-13T09:10:18.669Z,99438.30
2018-09-13T09:13:21.937Z,99440.45
2018-09-13T09:16:25.082Z,99436.79
2018-09-13T09:19:28.311Z,99435.69
2018-09-13T09:22:31.525Z,99424.48
2018-09-13T09:25:34.714Z,99426.75
2018-09-13T09:28:38.114Z,99430.69
2018-09-13T09:31:41.357Z,99429.41
2018-09-13T09:34:44.553Z,99425.09
2018-09-13T09:37:47.676Z,99426.61
2018-09-13T09:40:50.855Z,99428.45
2018-09-13T09:43:53.886Z,99432.92
2018-09-13T09:46:57.033Z,99434.13
2018-09-13T09:50:00.166Z,99428.90
2018-09-13T09:53:03.598Z,99424.98
2018-09-13T09:56:06.794Z,99430.18
2018-09-13T09:59:09.879Z,99429.47
2018-09-13T10:02:20.998Z,99430.97
2018-09-13T10:05:24.030Z,99421.14
2018-09-13T10:08:27.169Z,99413.73
2018-09-13T10:11:30.266Z,99404.00
2018-09-13T10:14:33.430Z,99398.94
2018-09-13T10:17:42.478Z,99394.00
2018-09-13T10:20:51.203Z,99402.87
2018-09-13T10:24:00.110Z,99415.66
2018-09-13T10:27:08.884Z,99418.24
2018-09-13T10:30:17.563Z,99414.50
2018-09-13T10:33:26.548Z,99414.09
2018-09-13T10:36:35.391Z,99403.61
2018-09-13T10:39:44.349Z,99402.27
2018-09-13T10:42:53.014Z,99406.97
2018-09-13T10:46:01.917Z,99412.70
2018-09-13T10:49:10.955Z,99413.87
2018-09-13T10:52:23.842Z,99402.19
2018-09-13T10:55:30.517Z,99407.88
2018-09-13T10:58:34.067Z,99411.81
2018-09-13T11:01:37.742Z,99421.40
2018-09-13T11:04:40.829Z,99414.92
2018-09-13T11:07:44.079Z,99403.62
2018-09-13T11:10:47.656Z,99404.34
2018-09-13T11:13:53.675Z,99404.95
2018-09-13T11:16:57.168Z,99407.23
2018-09-13T11:20:00.388Z,99411.27
2018-09-13T11:23:38.318Z,99404.06
2018-09-13T11:26:41.593Z,99401.13
2018-09-13T11:29:45.069Z,99411.52
2018-09-13T11:33:51.071Z,99406.51
2018-09-13T11:36:54.127Z,99399.78
2018-09-13T11:39:57.311Z,99402.05
2018-09-13T11:43:00.338Z,99405.65
2018-09-13T11:46:03.549Z,99401.28
2018-09-13T11:49:06.812Z,99405.80
2018-09-13T11:52:09.928Z,99398.23
2018-09-13T11:55:13.079Z,99408.86
2018-09-13T11:58:16.557Z,99402.56
2018-09-13T12:01:19.778Z,99406.91
2018-09-13T12:04:24.049Z,99413.98
2018-09-13T12:07:27.242Z,99422.26
2018-09-13T12:10:30.341Z,99427.23
2018-09-13T12:13:33.425Z,99431.30
2018-09-13T12:16:36.667Z,99422.85
2018-09-13T12:19:40.021Z,99426.83
2018-09-13T12:22:43.161Z,99415.22
2018-09-13T12:25:46.389Z,99417.88
2018-09-13T12:28:49.910Z,99405.97
2018-09-13T12:31:53.262Z,99407.17
2018-09-13T12:34:56.484Z,99414.55
2018-09-13T12:37:59.697Z,99411.46
2018-09-13T12:41:02.910Z,99412.06
2018-09-13T12:44:06.692Z,99407.43
2018-09-13T12:47:09.939Z,99408.41
2018-09-13T12:50:13.275Z,99403.30
2018-09-13T12:53:16.620Z,99409.16
2018-09-13T12:56:19.926Z,99398.87
2018-09-13T12:59:23.107Z,99397.59
2018-09-13T13:02:26.393Z,99394.13
2018-09-13T13:05:29.574Z,99390.75
2018-09-13T13:08:32.873Z,99396.83
2018-09-13T13:11:36.078Z,99393.11
2018-09-13T13:14:39.415Z,99398.86
2018-09-13T13:17:43.029Z,99384.16
2018-09-13T13:20:47.331Z,99380.88
2018-09-13T13:23:50.896Z,99369.00
2018-09-13T13:26:54.191Z,99367.47
2018-09-13T13:29:57.503Z,99373.80
2018-09-13T13:33:00.820Z,99373.84
2018-09-13T13:36:03.960Z,99375.75
2018-09-13T13:39:09.162Z,99369.18
2018-09-13T13:42:12.558Z,99360.84
2018-09-13T13:45:15.752Z,99352.77
2018-09-13T13:48:18.956Z,99354.00
2018-09-13T13:51:22.165Z,99351.14
2018-09-13T13:54:25.336Z,99352.03
2018-09-13T13:57:28.771Z,99350.89
2018-09-13T14:00:32.030Z,99346.02
2018-09-13T14:03:35.239Z,99342.71
2018-09-13T14:06:38.445Z,99336.61
2018-09-13T14:09:41.634Z,99343.92
2018-09-13T14:12:44.721Z,99347.12
2018-09-13T14:15:47.782Z,99351.36
2018-09-13T14:18:50.747Z,99352.07
2018-09-13T14:21:54.051Z,99352.16
2018-09-13T14:24:57.221Z,99347.05
2018-09-13T14:28:00.336Z,99354.58
2018-09-13T14:31:03.548Z,99352.92
2018-09-13T14:34:06.735Z,99342.99
2018-09-13T14:37:10.746Z,99347.90
2018-09-13T14:40:13.956Z,99343.38
2018-09-13T14:43:17.069Z,99340.66
2018-09-13T14:46:20.361Z,99335.45
2018-09-13T14:49:23.544Z,99332.94
2018-09-13T14:52:26.930Z,99336.22
2018-09-13T14:55:30.142Z,99335.61
2018-09-13T14:58:33.233Z,99339.55
2018-09-13T15:01:36.354Z,99340.47
2018-09-13T15:04:39.614Z,99336.28
2018-09-13T15:07:42.786Z,99332.67
2018-09-13T15:11:49.513Z,99330.66
2018-09-13T15:14:52.889Z,99326.30
2018-09-13T15:17:56.341Z,99326.39
2018-09-13T15:20:59.554Z,99339.06
2018-09-13T15:24:02.715Z,99344.42
2018-09-13T15:27:06.070Z,99345.30
2018-09-13T15:30:09.319Z,99338.95
2018-09-13T15:33:12.358Z,99337.08
2018-09-13T15:36:15.573Z,99340.73
2018-09-13T15:39:18.595Z,99341.95
2018-09-13T15:42:21.752Z,99341.25
2018-09-13T15:45:24.859Z,99344.20
2018-09-13T15:48:28.102Z,99341.86
2018-09-13T15:51:31.262Z,99345.58
2018-09-13T15:54:34.596Z,99345.72
2018-09-13T15:57:37.728Z,99348.00
2018-09-13T16:00:40.952Z,99354.28
2018-09-13T16:03:44.221Z,99351.53
2018-09-13T16:06:47.456Z,99355.41
2018-09-13T16:09:50.650Z,99358.28
2018-09-13T16:12:53.920Z,99354.20
2018-09-13T16:15:57.119Z,99352.18
2018-09-13T16:19:00.404Z,99354.98
2018-09-13T16:22:03.548Z,99358.35
2018-09-13T16:25:06.675Z,99350.92
2018-09-13T16:28:10.012Z,99352.26
2018-09-13T16:31:13.192Z,99342.59
2018-09-13T16:34:16.369Z,99349.53
2018-09-13T16:37:25.608Z,99345.13
2018-09-13T16:40:34.598Z,99349.09
2018-09-13T16:43:43.537Z,99337.30
2018-09-13T16:46:52.292Z,99340.86
2018-09-13T16:49:56.111Z,99341.30
2018-09-13T16:52:59.390Z,99343.94
2018-09-13T16:56:02.660Z,99349.30
2018-09-13T16:59:05.827Z,99347.46
2018-09-13T17:02:09.058Z,99349.79
2018-09-13T17:05:12.290Z,99341.57
2018-09-13T17:08:15.653Z,99351.94
2018-09-13T17:11:18.832Z,99345.33
2018-09-13T17:14:21.941Z,99351.44
2018-09-13T17:17:24.999Z,99352.23
2018-09-13T17:20:28.244Z,99352.64
2018-09-13T17:23:31.434Z,99356.00
2018-09-13T17:26:34.781Z,99352.62
2018-09-13T17:29:38.028Z,99354.65
2018-09-13T17:32:41.172Z,99351.00
2018-09-13T17:35:44.495Z,99350.17
2018-09-13T17:38:47.720Z,99353.73
2018-09-13T17:41:51.077Z,99362.91
2018-09-13T17:44:54.246Z,99358.34
2018-09-13T17:47:57.938Z,99360.48
2018-09-13T17:51:02.739Z,99361.66
2018-09-13T17:54:06.164Z,99370.32
2018-09-13T17:57:10.075Z,99378.65
2018-09-13T18:00:15.857Z,99377.28
2018-09-13T18:03:19.280Z,99378.45
2018-09-13T18:06:23.227Z,99372.34
2018-09-13T18:09:26.492Z,99385.39
2018-09-13T18:12:29.587Z,99378.91
2018-09-13T18:15:32.730Z,99384.20
2018-09-13T18:18:37.118Z,99387.44
2018-09-13T18:22:03.672Z,99388.95
2018-09-13T18:25:06.882Z,99389.31
2018-09-13T18:28:10.224Z,99384.63
2018-09-13T18:31:13.463Z,99388.31
2018-09-13T18:34:16.633Z,99392.58
2018-09-13T18:37:19.874Z,99396.16
2018-09-13T18:40:23.401Z,99399.56
2018-09-13T18:43:26.806Z,99399.27
2018-09-13T18:46:30.009Z,99403.38
2018-09-13T18:49:33.467Z,99406.84
2018-09-13T18:52:36.734Z,99410.23
2018-09-13T18:55:40.459Z,99411.25
2018-09-13T18:58:43.641Z,99416.48
2018-09-13T19:01:46.853Z,99418.98
2018-09-13T19:04:50.039Z,99415.31
2018-09-13T19:07:53.359Z,99422.75
2018-09-13T19:10:57.010Z,99419.80
2018-09-13T19:14:00.468Z,99428.16
2018-09-13T19:17:03.739Z,99424.61
2018-09-13T19:20:06.977Z,99431.36
2018-09-13T19:23:10.316Z,99430.79
2018-09-13T19:26:13.571Z,99437.50
2018-09-13T19:29:16.810Z,99433.21
2018-09-13T19:32:20.234Z,99434.73
2018-09-13T19:35:24.374Z,99436.94
2018-09-13T19:38:27.738Z,99437.24
2018-09-13T19:41:31.068Z,99438.32
2018-09-13T19:44:34.199Z,99442.22
2018-09-13T19:47:37.516Z,99448.00
2018-09-13T19:50:41.804Z,99457.80
2018-09-13T19:53:44.903Z,99459.88
2018-09-13T19:56:48.114Z,99464.75
2018-09-13T19:59:51.319Z,99460.34
2018-09-13T20:02:54.682Z,99459.68
2018-09-13T20:05:57.821Z,99463.11
2018-09-13T20:09:01.197Z,99463.61
2018-09-13T20:12:04.682Z,99462.70
2018-09-13T20:15:07.948Z,99462.43
2018-09-13T20:18:11.208Z,99471.92
2018-09-13T20:21:14.742Z,99467.53
2018-09-13T20:24:17.979Z,99471.48
2018-09-13T20:27:21.273Z,99478.83
2018-09-13T20:30:24.338Z,99477.83
2018-09-13T20:33:27.398Z,99484.46
2018-09-13T20:36:30.450Z,99481.61
2018-09-13T20:39:33.580Z,99484.81
2018-09-13T20:42:37.270Z,99483.64
2018-09-13T20:45:40.388Z,99484.72
2018-09-13T20:48:43.540Z,99482.80
2018-09-13T20:51:46.718Z,99487.45
2018-09-13T20:54:49.866Z,99480.45
2018-09-13T20:57:52.906Z,99482.09
2018-09-13T21:00:56.607Z,99482.66
2018-09-13T21:03:59.877Z,99477.45
2018-09-13T21:07:02.957Z,99479.31
2018-09-13T21:10:06.171Z,99477.63
2018-09-13T21:13:09.522Z,99477.58
2018-09-13T21:16:12.629Z,99472.93
2018-09-13T21:19:15.892Z,99475.19
2018-09-13T21:22:19.080Z,99467.50
2018-09-13T21:25:22.209Z,99468.07
2018-09-13T21:28:25.425Z,99469.79
2018-09-13T21:31:28.614Z,99468.19
2018-09-13T21:34:31.857Z,99466.30
2018-09-13T21:37:35.025Z,99465.58
2018-09-13T21:40:38.377Z,99465.95
2018-09-13T21:43:41.590Z,99460.13
2018-09-13T21:46:45.194Z,99459.55
2018-09-13T21:49:48.372Z,99462.61
2018-09-13T21:52:51.523Z,99467.09
2018-09-13T21:55:55.024Z,99467.41
2018-09-13T21:58:58.100Z,99466.34
2018-09-13T22:02:01.250Z,99470.05
2018-09-13T22:05:04.691Z,99471.77
2018-09-13T22:08:08.466Z,99472.08
2018-09-13T22:11:11.743Z,99477.07
2018-09-13T22:14:15.261Z,99473.67
2018-09-13T22:17:18.587Z,99477.56
2018-09-13T22:20:21.902Z,99473.16
2018-09-13T22:23:25.281Z,99470.67
2018-09-13T22:26:28.401Z,99471.48
2018-09-13T22:29:31.493Z,99472.30
2018-09-13T22:32:34.769Z,99476.52
2018-09-13T22:35:37.896Z,99479.72
2018-09-13T22:38:41.044Z,99471.88
2018-09-13T22:41:44.218Z,99476.27
2018-09-13T22:44:47.433Z,99478.28
2018-09-13T22:47:50.558Z,99482.91
2018-09-13T22:50:53.651Z,99480.07
2018-09-13T22:53:56.815Z,99476.18
2018-09-13T22:57:00.025Z,99475.29
2018-09-13T23:00:03.442Z,99473.78
2018-09-13T23:03:06.623Z,99482.01
2018-09-13T23:06:09.799Z,99478.13
2018-09-13T23:09:12.929Z,99480.11
2018-09-13T23:12:16.004Z,99477.47
2018-09-13T23:15:19.163Z,99480.30
2018-09-13T23:18:22.317Z,99478.92
2018-09-13T23:21:25.448Z,99471.21
2018-09-13T23:24:28.665Z,99469.22
2018-09-13T23:27:31.763Z,99472.08
2018-09-13T23:30:35.794Z,99473.24
2018-09-13T23:33:38.867Z,99472.19
2018-09-13T23:36:41.953Z,99470.05
2018-09-13T23:39:45.299Z,99472.42
2018-09-13T23:42:48.105Z,99473.79
2018-09-13T23:45:51.331Z,99477.86
2018-09-13T23:48:54.418Z,99478.52
2018-09-13T23:51:57.542Z,99485.03
2018-09-13T23:55:00.714Z,99484.59
2018-09-13T23:58:03.770Z,99480.77
